Time;durP1;ratioP1;P1;durP2;ratioP2;P2;SDS_P1;SDS_P2;PMS_P1;PMS_P2;Temp;Humidity;BMP_temperature;BMP_pressure;BME280_temperature;BME280_humidity;BME280_pressure;Samples;Min_cycle;Max_cycle;Signal;HPM_P1;HPM_P2
2023/03/17 00:00:34;;;;;;;1999.90;999.90;;;;;;;2.05;77.48;98603.69;5075580;28;20067;-76
2023/03/17 00:03:00;;;;;;;1999.90;999.90;;;;;;;1.98;78.50;98608.31;5071843;28;20482;-76
2023/03/17 00:05:30;;;;;;;1999.90;999.90;;;;;;;1.89;79.05;98615.06;5088576;28;20020;-75
2023/03/17 00:08:04;;;;;;;1999.90;999.90;;;;;;;1.65;79.43;98601.63;5112971;28;20028;-76
2023/03/17 00:10:29;;;;;;;1999.90;999.90;;;;;;;1.71;80.26;98611.53;5112739;28;20063;-77
2023/03/17 00:12:55;;;;;;;1999.90;999.90;;;;;;;1.70;80.76;98608.00;5105672;27;20119;-76
2023/03/17 00:15:26;;;;;;;1999.90;999.90;;;;;;;1.72;80.65;98613.19;5099404;28;20040;-76
2023/03/17 00:17:54;;;;;;;1999.90;999.90;;;;;;;1.62;81.13;98619.09;5112971;28;20066;-77
2023/03/17 00:20:22;;;;;;;1999.90;999.90;;;;;;;1.55;82.13;98612.91;5112946;28;20052;-77
2023/03/17 00:22:47;;;;;;;1999.90;999.90;;;;;;;1.59;82.26;98611.44;5109856;28;20028;-76
2023/03/17 00:25:31;;;;;;;1999.90;999.90;;;;;;;1.55;82.03;98618.31;5091423;28;20370;-76
2023/03/17 00:27:58;;;;;;;1999.90;999.90;;;;;;;1.50;82.08;98615.47;5091374;28;20053;-75
2023/03/17 00:30:26;;;;;;;1999.90;999.90;;;;;;;1.44;82.05;98605.56;5089131;28;20502;-75
2023/03/17 00:32:54;;;;;;;1999.90;999.90;;;;;;;1.38;82.47;98611.84;5086063;28;20024;-76
2023/03/17 00:35:21;;;;;;;1999.90;999.90;;;;;;;1.36;83.39;98608.53;5092135;28;20031;-76
2023/03/17 00:37:48;;;;;;;1999.90;999.90;;;;;;;1.33;83.58;98614.34;5092337;28;20481;-74
2023/03/17 00:40:16;;;;;;;1999.90;999.90;;;;;;;1.12;84.48;98588.63;5092142;28;20123;-76
2023/03/17 00:42:41;;;;;;;1999.90;999.90;;;;;;;1.20;85.06;98609.06;5090951;28;20488;-76
2023/03/17 00:45:07;;;;;;;1999.90;999.90;;;;;;;1.11;85.86;98605.00;5092389;28;20038;-77
2023/03/17 00:47:32;;;;;;;1999.90;999.90;;;;;;;1.01;86.65;98600.91;5092247;28;20472;-76
2023/03/17 00:49:58;;;;;;;1999.90;999.90;;;;;;;1.03;87.55;98598.03;5092146;28;20107;-76
2023/03/17 00:52:25;;;;;;;1999.90;999.90;;;;;;;1.08;88.01;98593.63;5092021;28;20056;-76
2023/03/17 00:54:51;;;;;;;1999.90;999.90;;;;;;;1.21;87.78;98598.09;5091513;28;20031;-74
2023/03/17 00:57:16;;;;;;;1999.90;999.90;;;;;;;1.12;87.16;98595.88;5091742;28;20389;-75
2023/03/17 00:59:42;;;;;;;1999.90;999.90;;;;;;;1.15;87.06;98596.28;5091510;28;20062;-74
2023/03/17 01:02:11;;;;;;;1999.90;999.90;;;;;;;1.08;87.71;98590.94;5109111;28;20059;-78
2023/03/17 01:04:36;;;;;;;1999.90;999.90;;;;;;;0.96;87.46;98586.47;5113090;28;20019;-75
2023/03/17 01:07:02;;;;;;;1999.90;999.90;;;;;;;0.88;88.07;98590.25;5112110;28;20495;-74
2023/03/17 01:09:28;;;;;;;1999.90;999.90;;;;;;;0.86;89.06;98583.44;5111805;28;20472;-74
2023/03/17 01:11:54;;;;;;;1999.90;999.90;;;;;;;0.93;89.50;98576.97;5111869;28;21055;-76
2023/03/17 01:14:21;;;;;;;1999.90;999.90;;;;;;;0.97;89.64;98578.16;5111645;28;20510;-77
2023/03/17 01:16:46;;;;;;;1999.90;999.90;;;;;;;0.86;89.75;98578.88;5113942;28;20024;-74
2023/03/17 01:19:13;;;;;;;1999.90;999.90;;;;;;;0.79;91.70;98569.19;5111597;28;20027;-75
2023/03/17 01:21:40;;;;;;;1999.90;999.90;;;;;;;0.91;92.21;98575.50;5111825;28;20036;-75
2023/03/17 01:24:07;;;;;;;1999.90;999.90;;;;;;;0.87;92.36;98566.25;5111623;28;20046;-78
2023/03/17 01:26:32;;;;;;;1999.90;999.90;;;;;;;0.80;93.13;98574.38;5111713;27;20032;-75
2023/03/17 01:28:57;;;;;;;1999.90;999.90;;;;;;;0.75;92.92;98574.16;5111475;28;20028;-74
2023/03/17 01:31:23;;;;;;;1999.90;999.90;;;;;;;0.63;93.59;98575.91;5112089;28;20043;-75
2023/03/17 01:33:49;;;;;;;1999.90;999.90;;;;;;;0.63;93.81;98570.53;5111465;28;20035;-75
2023/03/17 01:36:15;;;;;;;1999.90;999.90;;;;;;;0.62;94.59;98576.97;5111665;28;20024;-76
2023/03/17 01:38:40;;;;;;;1999.90;999.90;;;;;;;0.52;95.26;98572.06;5111246;28;20019;-77
2023/03/17 01:41:06;;;;;;;1999.90;999.90;;;;;;;0.43;94.63;98569.84;5111483;28;20102;-74
2023/03/17 01:43:32;;;;;;;1999.90;999.90;;;;;;;0.47;93.66;98557.63;5111428;28;20028;-77
2023/03/17 01:46:24;;;;;;;1999.90;999.90;;;;;;;0.52;93.31;98563.16;5111477;28;20055;-76
2023/03/17 01:48:56;;;;;;;1999.90;999.90;;;;;;;0.43;94.60;98565.28;5111366;28;20537;-76
2023/03/17 01:51:41;;;;;;;1999.90;999.90;;;;;;;0.47;94.40;98568.38;5111192;28;20110;-76
2023/03/17 01:54:13;;;;;;;1999.90;999.90;;;;;;;0.47;94.62;98553.03;5079600;27;20499;-75
2023/03/17 01:56:42;;;;;;;1999.90;999.90;;;;;;;0.53;94.86;98554.06;5111167;28;20035;-75
2023/03/17 01:59:12;;;;;;;1999.90;999.90;;;;;;;0.46;94.42;98553.25;5112607;28;20027;-74
2023/03/17 02:01:42;;;;;;;1999.90;999.90;;;;;;;0.38;96.20;98557.03;5111767;28;20035;-74
2023/03/17 02:04:09;;;;;;;1999.90;999.90;;;;;;;0.43;97.06;98554.53;5111473;28;20027;-74
2023/03/17 02:06:35;;;;;;;1999.90;999.90;;;;;;;0.51;96.01;98561.50;5111801;28;20028;-77
2023/03/17 02:09:01;;;;;;;1999.90;999.90;;;;;;;0.33;97.10;98553.34;5112796;28;20143;-77
2023/03/17 02:11:27;;;;;;;1999.90;999.90;;;;;;;0.25;99.65;98551.69;5111093;28;20445;-75
2023/03/17 02:13:53;;;;;;;1999.90;999.90;;;;;;;0.17;100.00;98553.81;5111213;28;20057;-76
2023/03/17 02:16:20;;;;;;;1999.90;999.90;;;;;;;0.19;100.00;98554.44;5110944;28;20049;-77
2023/03/17 02:18:45;;;;;;;1999.90;999.90;;;;;;;0.17;100.00;98553.81;5111034;28;20047;-75
2023/03/17 02:21:41;;;;;;;1999.90;999.90;;;;;;;0.23;100.00;98547.59;5110864;28;20417;-76
2023/03/17 02:24:11;;;;;;;;;;;;;;;0.26;100.00;98553.38;5106748;28;20051;-76
2023/03/17 02:26:37;;;;;;;1999.90;999.90;;;;;;;0.22;100.00;98548.66;5115229;28;19916;-75
2023/03/17 02:29:04;;;;;;;1999.90;999.90;;;;;;;0.23;100.00;98548.41;5114996;28;20012;-76
2023/03/17 02:31:30;;;;;;;1999.90;999.90;;;;;;;0.22;100.00;98551.34;5115571;27;20028;-76
2023/03/17 02:33:56;;;;;;;1999.90;999.90;;;;;;;0.17;100.00;98545.75;5115220;28;20088;-76
2023/03/17 02:36:21;;;;;;;1999.90;999.90;;;;;;;0.21;100.00;98549.69;5115299;28;20035;-77
2023/03/17 02:38:47;;;;;;;1999.90;999.90;;;;;;;0.15;100.00;98551.38;5116067;28;20024;-76
2023/03/17 02:41:13;;;;;;;1999.90;999.90;;;;;;;0.17;100.00;98551.13;5117319;28;20027;-75
2023/03/17 02:43:40;;;;;;;1999.90;999.90;;;;;;;0.17;100.00;98545.75;5117362;28;20115;-77
2023/03/17 02:46:06;;;;;;;1999.90;999.90;;;;;;;0.23;100.00;98552.97;5115841;28;20062;-77
2023/03/17 02:48:35;;;;;;;1999.90;999.90;;;;;;;0.21;100.00;98549.69;5099861;27;20028;-77
2023/03/17 02:51:00;;;;;;;1999.90;999.90;;;;;;;0.11;99.54;98544.75;5105055;28;20023;-75
2023/03/17 02:53:26;;;;;;;1999.90;999.90;;;;;;;0.10;100.00;98547.66;5100503;28;20436;-76
2023/03/17 02:55:51;;;;;;;1999.90;999.90;;;;;;;0.21;100.00;98541.59;5087108;28;20476;-75
2023/03/17 02:58:16;;;;;;;1999.90;999.90;;;;;;;0.14;100.00;98538.94;5094557;28;20028;-76
2023/03/17 03:00:42;;;;;;;1999.90;999.90;;;;;;;0.09;100.00;98543.31;5076463;28;20090;-75
2023/03/17 03:03:08;;;;;;;1999.90;999.90;;;;;;;0.05;100.00;98540.22;5075587;28;20396;-75
2023/03/17 03:05:34;;;;;;;1999.90;999.90;;;;;;;-0.01;100.00;98541.09;5075432;28;20025;-75
2023/03/17 03:07:59;;;;;;;1999.90;999.90;;;;;;;-0.11;100.00;98538.03;5077909;28;20253;-77
2023/03/17 03:10:25;;;;;;;1999.90;999.90;;;;;;;-0.10;100.00;98537.81;5080119;28;20548;-78
2023/03/17 03:12:51;;;;;;;1999.90;999.90;;;;;;;0.01;100.00;98541.69;5097622;28;20016;-79
2023/03/17 03:15:16;;;;;;;1999.90;999.90;;;;;;;-0.03;100.00;98537.78;5097022;28;20047;-75
2023/03/17 03:17:42;;;;;;;1999.90;999.90;;;;;;;0.03;100.00;98549.56;5096596;28;20028;-77
2023/03/17 03:20:10;;;;;;;1999.90;999.90;;;;;;;0.03;100.00;98550.38;5093885;28;20086;-76
2023/03/17 03:22:35;;;;;;;1999.90;999.90;;;;;;;0.06;100.00;98552.66;5093882;28;20111;-74
2023/03/17 03:25:01;;;;;;;1999.90;999.90;;;;;;;0.00;100.00;98548.94;5093651;28;20111;-75
2023/03/17 03:27:26;;;;;;;1999.90;999.90;;;;;;;-0.09;100.00;98544.84;5095013;28;20051;-75
2023/03/17 03:29:52;;;;;;;1999.90;999.90;;;;;;;-0.14;100.00;98552.72;5113047;28;20038;-75
2023/03/17 03:32:17;;;;;;;1999.90;999.90;;;;;;;-0.18;100.00;98556.03;5114437;28;20052;-75
2023/03/17 03:34:42;;;;;;;1999.90;999.90;;;;;;;-0.16;100.00;98560.16;5113705;28;20032;-76
2023/03/17 03:37:08;;;;;;;1999.90;999.90;;;;;;;-0.16;100.00;98559.34;5113227;28;20019;-75
2023/03/17 03:39:34;;;;;;;1999.90;999.90;;;;;;;-0.13;100.00;98559.75;5114160;28;20486;-77
2023/03/17 03:41:59;;;;;;;1999.90;999.90;;;;;;;-0.14;100.00;98568.84;5115137;28;20030;-74
2023/03/17 03:44:25;;;;;;;1999.90;999.90;;;;;;;-0.20;100.00;98575.06;5114757;28;20024;-75
2023/03/17 03:46:50;;;;;;;1999.90;999.90;;;;;;;-0.31;100.00;98570.34;5097793;28;20464;-75
2023/03/17 03:49:16;;;;;;;1999.90;999.90;;;;;;;-0.41;100.00;98571.81;5093009;28;20476;-75
2023/03/17 03:51:41;;;;;;;1999.90;999.90;;;;;;;-0.47;100.00;98565.41;5092897;28;20490;-75
2023/03/17 03:54:06;;;;;;;1999.90;999.90;;;;;;;-0.46;100.00;98561.69;5092526;28;20036;-75
2023/03/17 03:56:32;;;;;;;1999.90;999.90;;;;;;;-0.54;100.00;98561.94;5092644;28;20024;-75
2023/03/17 03:58:57;;;;;;;1999.90;999.90;;;;;;;-0.47;100.00;98562.72;5092523;28;20032;-75
2023/03/17 04:01:23;;;;;;;1999.90;999.90;;;;;;;-0.47;100.00;98570.78;5092470;28;20035;-75
2023/03/17 04:03:49;;;;;;;1999.90;999.90;;;;;;;-0.55;100.00;98565.63;5092747;28;20381;-75
2023/03/17 04:06:15;;;;;;;1999.90;999.90;;;;;;;-0.55;100.00;98561.09;5093090;28;20028;-74
2023/03/17 04:08:40;;;;;;;1999.90;999.90;;;;;;;-0.54;100.00;98561.94;5095693;28;20023;-74
2023/03/17 04:11:06;;;;;;;1999.90;999.90;;;;;;;-0.53;100.00;98558.19;5092601;28;20028;-74
2023/03/17 04:13:31;;;;;;;1999.90;999.90;;;;;;;-0.41;100.00;98561.06;5092658;28;20165;-74
2023/03/17 04:15:56;;;;;;;1999.90;999.90;;;;;;;-0.38;100.00;98566.84;5093484;28;20024;-74
2023/03/17 04:18:22;;;;;;;1999.90;999.90;;;;;;;-0.36;100.00;98559.41;5093738;28;20078;-75
2023/03/17 04:20:47;;;;;;;1999.90;999.90;;;;;;;-0.46;100.00;98553.63;5092476;28;20024;-74
2023/03/17 04:23:13;;;;;;;1999.90;999.90;;;;;;;-0.36;100.00;98553.19;5092425;28;20028;-74
2023/03/17 04:25:38;;;;;;;1999.90;999.90;;;;;;;-0.48;100.00;98558.41;5092449;28;20119;-75
2023/03/17 04:28:04;;;;;;;1999.90;999.90;;;;;;;-0.49;100.00;98551.38;5092315;28;20125;-75
2023/03/17 04:30:30;;;;;;;1999.90;999.90;;;;;;;-0.44;100.00;98561.50;5092138;28;20020;-75
2023/03/17 04:32:55;;;;;;;1999.90;999.90;;;;;;;-0.38;100.00;98560.66;5092577;28;20103;-74
2023/03/17 04:35:21;;;;;;;1999.90;999.90;;;;;;;-0.34;100.00;98557.31;5092163;28;20040;-74
2023/03/17 04:37:48;;;;;;;1999.90;999.90;;;;;;;-0.31;100.00;98564.97;5092116;28;20028;-75
2023/03/17 04:40:15;;;;;;;1999.90;999.90;;;;;;;-0.44;100.00;98556.13;5102868;28;20034;-75
2023/03/17 04:42:41;;;;;;;1999.90;999.90;;;;;;;-0.45;100.00;98555.28;5112641;28;20023;-75
2023/03/17 04:45:10;;;;;;;1999.90;999.90;;;;;;;-0.42;100.00;98560.25;5113625;28;20024;-74
2023/03/17 04:47:36;;;;;;;1999.90;999.90;;;;;;;-0.25;100.00;98561.44;5111903;28;20020;-74
2023/03/17 04:50:01;;;;;;;1999.90;999.90;;;;;;;-0.22;100.00;98561.00;5111958;28;20027;-74
2023/03/17 04:52:27;;;;;;;1999.90;999.90;;;;;;;-0.23;100.00;98556.69;5112200;28;20032;-75
2023/03/17 04:54:52;;;;;;;1999.90;999.90;;;;;;;-0.32;100.00;98544.53;5112161;28;20472;-75
2023/03/17 04:57:18;;;;;;;1999.90;999.90;;;;;;;-0.28;100.00;98561.06;5112249;28;20418;-75
2023/03/17 04:59:43;;;;;;;1999.90;999.90;;;;;;;-0.23;100.00;98559.38;5112069;28;20081;-75
2023/03/17 05:02:08;;;;;;;1999.90;999.90;;;;;;;-0.35;100.00;98563.75;5112487;28;20024;-74
2023/03/17 05:04:34;;;;;;;1999.90;999.90;;;;;;;-0.48;100.00;98566.47;5111988;28;20027;-74
2023/03/17 05:07:00;;;;;;;1999.90;999.90;;;;;;;-0.59;100.00;98567.91;5111955;28;20384;-74
2023/03/17 05:09:32;;;;;;;;;;;;;;;-0.61;100.00;98572.69;5109158;27;20389;-76
2023/03/17 05:11:57;;;;;;;1999.90;999.90;;;;;;;-0.80;100.00;98578.06;5107118;28;19922;-76
2023/03/17 05:14:22;;;;;;;1999.90;999.90;;;;;;;-0.83;100.00;98573.09;5113004;28;20087;-75
2023/03/17 05:16:49;;;;;;;1999.90;999.90;;;;;;;-0.82;100.00;98564.03;5108564;28;20024;-74
2023/03/17 05:19:15;;;;;;;1999.90;999.90;;;;;;;-0.81;100.00;98568.34;5108561;28;20074;-75
2023/03/17 05:21:41;;;;;;;1999.90;999.90;;;;;;;-0.92;100.00;98563.63;5108291;28;20024;-76
2023/03/17 05:24:07;;;;;;;1999.90;999.90;;;;;;;-0.87;100.00;98578.06;5108401;28;20119;-77
2023/03/17 05:26:33;;;;;;;1999.90;999.90;;;;;;;-0.80;100.00;98578.06;5106870;28;20391;-75
2023/03/17 05:28:58;;;;;;;1999.90;999.90;;;;;;;-0.77;100.00;98574.97;5108178;28;20035;-76
2023/03/17 05:31:24;;;;;;;1999.90;999.90;;;;;;;-0.63;100.00;98576.63;5090816;28;20050;-76
2023/03/17 05:33:49;;;;;;;1999.90;999.90;;;;;;;-0.62;100.00;98580.94;5088488;28;20056;-75
2023/03/17 05:36:15;;;;;;;1999.90;999.90;;;;;;;-0.57;100.00;98578.47;5087984;28;20107;-76
2023/03/17 05:38:42;;;;;;;1999.90;999.90;;;;;;;-0.39;100.00;98573.25;5087995;28;20042;-77
2023/03/17 05:41:09;;;;;;;1999.90;999.90;;;;;;;-0.25;100.00;98580.22;5087396;28;20032;-77
2023/03/17 05:43:35;;;;;;;1999.90;999.90;;;;;;;-0.21;100.00;98589.53;5087933;28;20028;-76
2023/03/17 05:46:00;;;;;;;1999.90;999.90;;;;;;;-0.13;100.00;98586.63;5087395;28;20024;-75
2023/03/17 05:48:26;;;;;;;1999.90;999.90;;;;;;;0.09;100.00;98573.72;5087389;28;20036;-78
2023/03/17 05:50:51;;;;;;;1999.90;999.90;;;;;;;0.19;100.00;98586.72;5087208;28;20063;-77
2023/03/17 05:53:17;;;;;;;1999.90;999.90;;;;;;;0.21;100.00;98576.56;5086443;28;20040;-75
2023/03/17 05:55:43;;;;;;;1999.90;999.90;;;;;;;0.27;100.00;98592.69;5087421;28;20111;-77
2023/03/17 05:58:08;;;;;;;1999.90;999.90;;;;;;;0.32;100.00;98592.03;5087396;28;20033;-74
2023/03/17 06:00:35;;;;;;;1999.90;999.90;;;;;;;0.40;100.00;98589.94;5087318;28;20079;-76
2023/03/17 06:03:02;;;;;;;1999.90;999.90;;;;;;;0.46;100.00;98583.69;5087758;28;20118;-76
2023/03/17 06:05:28;;;;;;;1999.90;999.90;;;;;;;0.50;100.00;98592.16;5087010;28;20028;-78
2023/03/17 06:07:53;;;;;;;1999.90;999.90;;;;;;;0.69;100.00;98588.50;5087016;28;20059;-76
2023/03/17 06:10:19;;;;;;;1999.90;999.90;;;;;;;0.92;97.83;98594.16;5087202;28;20059;-77
2023/03/17 06:12:45;;;;;;;1999.90;999.90;;;;;;;1.10;95.46;98598.78;5087887;28;20385;-75
2023/03/17 06:15:10;;;;;;;1999.90;999.90;;;;;;;1.31;94.61;98589.50;5085472;28;20035;-76
2023/03/17 06:17:36;;;;;;;1999.90;999.90;;;;;;;1.43;92.66;98587.75;5085846;28;20076;-77
2023/03/17 06:20:02;;;;;;;1999.90;999.90;;;;;;;1.66;90.45;98593.31;5078219;28;20028;-74
2023/03/17 06:22:28;;;;;;;1999.90;999.90;;;;;;;1.72;89.58;98592.44;5073183;28;20036;-76
2023/03/17 06:24:53;;;;;;;1999.90;999.90;;;;;;;1.94;88.76;98590.94;5073005;28;20051;-75
2023/03/17 06:27:19;;;;;;;1999.90;999.90;;;;;;;2.70;84.57;98596.63;5073546;28;20116;-75
2023/03/17 06:29:44;;;;;;;1999.90;999.90;;;;;;;3.39;78.02;98600.56;5073551;28;20021;-74
2023/03/17 06:32:10;;;;;;;1999.90;999.90;;;;;;;3.23;77.69;98607.47;5073879;28;20078;-74
2023/03/17 06:34:36;;;;;;;1999.90;999.90;;;;;;;3.16;78.10;98600.53;5073041;28;20082;-75
2023/03/17 06:37:01;;;;;;;1999.90;999.90;;;;;;;2.98;78.22;98604.13;5073240;28;20521;-77
2023/03/17 06:39:26;;;;;;;1999.90;999.90;;;;;;;2.90;78.05;98607.16;5073027;28;20029;-75
2023/03/17 06:41:52;;;;;;;1999.90;999.90;;;;;;;2.66;79.34;98600.81;5072829;28;20047;-75
2023/03/17 06:44:17;;;;;;;1999.90;999.90;;;;;;;2.65;78.35;98598.38;5072954;28;20072;-75
2023/03/17 06:46:43;;;;;;;1999.90;999.90;;;;;;;2.42;80.24;98592.84;5072817;28;20108;-75
2023/03/17 06:49:12;;;;;;;1999.90;999.90;;;;;;;2.46;80.00;98600.28;5072627;28;20052;-77
2023/03/17 06:51:38;;;;;;;1999.90;999.90;;;;;;;2.61;79.78;98597.16;5072947;28;20078;-76
2023/03/17 06:54:03;;;;;;;1999.90;999.90;;;;;;;2.57;79.38;98595.97;5074492;28;20361;-77
2023/03/17 06:56:29;;;;;;;1999.90;999.90;;;;;;;2.85;78.46;98603.50;5073959;28;20028;-75
2023/03/17 06:58:54;;;;;;;1999.90;999.90;;;;;;;2.86;77.83;98603.25;5074370;28;20090;-76
2023/03/17 07:01:21;;;;;;;1999.90;999.90;;;;;;;2.64;79.30;98602.13;5072769;28;20078;-75
2023/03/17 07:03:46;;;;;;;1999.90;999.90;;;;;;;2.54;79.42;98596.44;5072900;28;20032;-75
2023/03/17 07:06:11;;;;;;;1999.90;999.90;;;;;;;2.49;79.91;98599.00;5072574;28;20534;-74
2023/03/17 07:08:37;;;;;;;1999.90;999.90;;;;;;;2.57;79.53;98596.81;5072705;28;20102;-76
2023/03/17 07:11:03;;;;;;;1999.90;999.90;;;;;;;2.80;78.85;98600.66;5074576;28;20476;-77
2023/03/17 07:13:30;;;;;;;1999.90;999.90;;;;;;;3.07;76.70;98613.53;5085785;28;20024;-76
2023/03/17 07:15:56;;;;;;;1999.90;999.90;;;;;;;3.10;76.44;98613.06;5089615;28;20418;-77
2023/03/17 07:18:21;;;;;;;1999.90;999.90;;;;;;;3.35;73.99;98620.19;5091725;28;20028;-76
2023/03/17 07:20:46;;;;;;;1999.90;999.90;;;;;;;3.64;72.54;98621.97;5091946;28;20026;-75
2023/03/17 07:23:19;;;;;;;1999.90;999.90;;;;;;;4.25;68.34;98627.72;5091757;28;20031;-75
2023/03/17 07:25:46;;;;;;;1999.90;999.90;;;;;;;5.00;66.01;98602.38;5091825;28;20152;-75
2023/03/17 07:28:11;;;;;;;1999.90;999.90;;;;;;;6.40;59.81;98641.00;5092754;28;20028;-75
2023/03/17 07:30:37;;;;;;;1999.90;999.90;;;;;;;6.28;57.77;98640.28;5091727;28;20047;-75
2023/03/17 07:33:03;;;;;;;1999.90;999.90;;;;;;;5.64;59.52;98630.88;5093834;28;20043;-77
2023/03/17 07:35:29;;;;;;;1999.90;999.90;;;;;;;5.67;59.20;98638.53;5092333;28;20043;-75
2023/03/17 07:37:55;;;;;;;1999.90;999.90;;;;;;;5.76;58.70;98642.47;5090789;28;20024;-76
2023/03/17 07:40:21;;;;;;;1999.90;999.90;;;;;;;6.72;57.14;98641.13;5090838;28;20369;-76
2023/03/17 07:42:46;;;;;;;1999.90;999.90;;;;;;;8.52;50.48;98643.78;5092795;28;20028;-77
2023/03/17 07:45:12;;;;;;;1999.90;999.90;;;;;;;10.03;45.76;98646.03;5094715;28;20101;-76
2023/03/17 07:47:38;;;;;;;1999.90;999.90;;;;;;;11.94;41.03;98650.97;5097218;28;20064;-76
2023/03/17 07:50:04;;;;;;;1999.90;999.90;;;;;;;12.87;38.14;98652.19;5093401;28;20126;-75
2023/03/17 07:52:30;;;;;;;1999.90;999.90;;;;;;;12.90;38.11;98635.13;5094248;28;20564;-75
2023/03/17 07:54:57;;;;;;;1999.90;999.90;;;;;;;13.46;38.00;98637.19;5095010;28;20111;-75
2023/03/17 07:57:22;;;;;;;1999.90;999.90;;;;;;;14.93;34.42;98633.50;5097122;28;20047;-78
2023/03/17 07:59:48;;;;;;;1999.90;999.90;;;;;;;14.26;34.63;98635.03;5098072;28;20731;-76
2023/03/17 08:02:15;;;;;;;1999.90;999.90;;;;;;;14.48;34.61;98628.88;5096662;28;20024;-78
2023/03/17 08:04:41;;;;;;;1999.90;999.90;;;;;;;15.47;33.31;98629.03;5097543;28;20023;-76
2023/03/17 08:07:07;;;;;;;1999.90;999.90;;;;;;;15.94;31.30;98638.72;5096680;28;20032;-78
2023/03/17 08:09:32;;;;;;;1999.90;999.90;;;;;;;16.31;31.64;98632.78;5094656;28;20028;-76
2023/03/17 08:11:58;;;;;;;1999.90;999.90;;;;;;;16.27;31.65;98637.31;5091071;28;20047;-75
2023/03/17 08:14:23;;;;;;;1999.90;999.90;;;;;;;16.97;31.18;98640.13;5091529;28;20064;-76
2023/03/17 08:16:49;;;;;;;1999.90;999.90;;;;;;;16.60;32.02;98635.88;5091622;28;20032;-75
2023/03/17 08:19:15;;;;;;;1999.90;999.90;;;;;;;16.19;31.90;98634.50;5091545;28;20032;-75
2023/03/17 08:21:40;;;;;;;1999.90;999.90;;;;;;;16.49;31.42;98631.75;5090375;28;20115;-76
2023/03/17 08:24:06;;;;;;;1999.90;999.90;;;;;;;16.55;30.94;98629.69;5091516;28;20455;-76
2023/03/17 08:26:32;;;;;;;1999.90;999.90;;;;;;;16.86;29.76;98627.72;5091561;28;20077;-75
2023/03/17 08:28:58;;;;;;;1999.90;999.90;;;;;;;16.45;29.70;98627.16;5091216;28;20480;-78
2023/03/17 08:31:23;;;;;;;1999.90;999.90;;;;;;;15.75;30.85;98624.28;5091471;28;20112;-76
2023/03/17 08:33:51;;;;;;;1999.90;999.90;;;;;;;15.59;31.04;98615.56;5091377;28;20020;-76
2023/03/17 08:36:18;;;;;;;1999.90;999.90;;;;;;;16.46;29.75;98628.81;5091609;28;20050;-76
2023/03/17 08:38:45;;;;;;;1999.90;999.90;;;;;;;17.05;28.66;98622.75;5091379;28;20050;-75
2023/03/17 08:41:14;;;;;;;1999.90;999.90;;;;;;;17.06;28.53;98618.84;5091237;28;20023;-77
2023/03/17 08:43:40;;;;;;;1999.90;999.90;;;;;;;16.66;29.17;98616.44;5090874;28;20032;-76
2023/03/17 08:46:19;;;;;;;1999.90;999.90;;;;;;;17.58;27.84;98621.72;5091064;28;20024;-78
2023/03/17 08:48:50;;;;;;;1999.90;999.90;;;;;;;17.53;27.82;98613.56;5091018;28;20031;-79
2023/03/17 08:51:16;;;;;;;1999.90;999.90;;;;;;;17.75;27.16;98620.91;5091043;28;20073;-75
2023/03/17 08:53:42;;;;;;;1999.90;999.90;;;;;;;16.65;28.52;98623.91;5091138;28;20024;-75
2023/03/17 08:56:08;;;;;;;1999.90;999.90;;;;;;;15.87;29.74;98610.75;5091214;28;20098;-77
2023/03/17 08:58:35;;;;;;;1999.90;999.90;;;;;;;16.62;29.26;98619.00;5091005;28;20024;-77
2023/03/17 09:01:03;;;;;;;1999.90;999.90;;;;;;;17.35;27.67;98615.50;5091165;28;20043;-75
2023/03/17 09:03:29;;;;;;;1999.90;999.90;;;;;;;17.60;26.78;98622.22;5091007;28;20559;-76
2023/03/17 09:05:55;;;;;;;1999.90;999.90;;;;;;;16.94;28.07;98613.13;5090993;28;20085;-77
2023/03/17 09:08:21;;;;;;;1999.90;999.90;;;;;;;16.76;28.63;98610.63;5090555;28;20105;-76
2023/03/17 09:10:47;;;;;;;1999.90;999.90;;;;;;;17.91;26.33;98609.03;5090800;28;20036;-77
2023/03/17 09:13:13;;;;;;;1999.90;999.90;;;;;;;17.74;27.23;98595.19;5090688;28;20013;-76
2023/03/17 09:15:39;;;;;;;1999.90;999.90;;;;;;;17.60;26.68;98598.13;5090997;28;20020;-76
2023/03/17 09:18:06;;;;;;;1999.90;999.90;;;;;;;18.30;26.26;98593.31;5090901;28;20577;-79
2023/03/17 09:20:31;;;;;;;1999.90;999.90;;;;;;;18.87;25.50;98594.59;5090946;28;20031;-76
2023/03/17 09:22:57;;;;;;;1999.90;999.90;;;;;;;18.86;25.43;98595.72;5091319;28;20036;-77
2023/03/17 09:25:22;;;;;;;1999.90;999.90;;;;;;;17.50;26.54;98587.34;5092437;28;20042;-76
2023/03/17 09:27:48;;;;;;;1999.90;999.90;;;;;;;17.37;26.93;98573.66;5090742;28;20085;-76
2023/03/17 09:30:13;;;;;;;1999.90;999.90;;;;;;;18.92;25.48;98588.06;5091018;28;20028;-78
2023/03/17 09:32:39;;;;;;;1999.90;999.90;;;;;;;20.71;23.42;98582.91;5090931;28;20031;-76
2023/03/17 09:35:05;;;;;;;1999.90;999.90;;;;;;;20.43;22.70;98583.91;5091209;28;20107;-78
2023/03/17 09:37:33;;;;;;;1999.90;999.90;;;;;;;19.88;22.20;98581.50;5091166;28;20024;-75
2023/03/17 09:39:59;;;;;;;1999.90;999.90;;;;;;;19.37;22.27;98575.19;5091236;28;20020;-76
2023/03/17 09:42:27;;;;;;;1999.90;999.90;;;;;;;19.62;22.27;98574.22;5091029;28;20365;-75
2023/03/17 09:45:22;;;;;;;1999.90;999.90;;;;;;;19.53;21.92;98570.69;5089733;28;20089;-77
2023/03/17 09:48:00;;;;;;;1999.90;999.90;;;;;;;18.33;23.67;98567.72;5088824;28;20066;-75
2023/03/17 09:50:52;;;;;;;1999.90;999.90;;;;;;;19.08;22.86;98567.72;5091101;28;20107;-76
2023/03/17 09:53:48;;;;;;;1999.90;999.90;;;;;;;18.89;22.81;98569.31;5091494;28;20024;-78
2023/03/17 09:56:16;;;;;;;1999.90;999.90;;;;;;;17.59;23.83;98554.19;5099469;28;20469;-83
2023/03/17 09:59:07;;;;;;;1999.90;999.90;;;;;;;19.01;22.86;98550.81;5098001;28;20089;-77
2023/03/17 10:01:33;;;;;;;1999.90;999.90;;;;;;;18.77;23.09;98541.47;5095040;28;20028;-77
2023/03/17 10:03:58;;;;;;;1999.90;999.90;;;;;;;18.73;22.84;98546.09;5094816;28;20027;-80
2023/03/17 10:06:32;;;;;;;1999.90;999.90;;;;;;;16.48;24.65;98543.69;5094493;28;20027;-75
2023/03/17 10:09:09;;;;;;;1999.90;999.90;;;;;;;15.55;25.33;98531.81;5094100;28;20052;-75
2023/03/17 10:11:42;;;;;;;1999.90;999.90;;;;;;;15.97;24.98;98525.75;5094326;28;20063;-75
2023/03/17 10:14:35;;;;;;;1999.90;999.90;;;;;;;16.69;25.00;98524.63;5094160;28;20039;-75
2023/03/17 10:17:24;;;;;;;1999.90;999.90;;;;;;;18.42;23.28;98516.66;5094000;28;20036;-77
2023/03/17 10:20:17;;;;;;;1999.90;999.90;;;;;;;18.13;23.29;98519.41;5093921;28;20063;-75
2023/03/17 10:22:51;;;;;;;1999.90;999.90;;;;;;;18.42;23.19;98524.19;5093866;28;20468;-76
2023/03/17 10:25:20;;;;;;;1999.90;999.90;;;;;;;18.67;23.11;98514.94;5092725;28;20658;-75
2023/03/17 10:28:20;;;;;;;1999.90;999.90;;;;;;;17.62;24.12;98521.16;5093474;28;20036;-76
2023/03/17 10:30:45;;;;;;;1999.90;999.90;;;;;;;17.07;24.89;98515.41;5093564;28;20028;-77
2023/03/17 10:33:11;;;;;;;1999.90;999.90;;;;;;;18.12;23.91;98520.53;5093694;28;20020;-74
2023/03/17 10:35:38;;;;;;;1999.90;999.90;;;;;;;18.79;23.41;98515.06;5093551;28;20119;-78
2023/03/17 10:38:19;;;;;;;1999.90;999.90;;;;;;;19.11;22.38;98513.53;5093440;28;20024;-74
2023/03/17 10:41:08;;;;;;;1999.90;999.90;;;;;;;19.42;22.56;98502.06;5093574;28;20498;-78
2023/03/17 10:43:40;;;;;;;1999.90;999.90;;;;;;;20.74;21.12;98509.09;5093788;28;20040;-76
2023/03/17 10:46:16;;;;;;;1999.90;999.90;;;;;;;20.59;20.90;98507.00;5093724;28;20481;-75
2023/03/17 10:48:51;;;;;;;1999.90;999.90;;;;;;;19.99;21.67;98508.53;5093245;28;20523;-74
2023/03/17 10:51:24;;;;;;;1999.90;999.90;;;;;;;19.40;21.73;98507.13;5096393;28;21132;-77
2023/03/17 10:53:52;;;;;;;1999.90;999.90;;;;;;;19.32;21.89;98505.22;5093415;28;20024;-75
2023/03/17 10:56:30;;;;;;;1999.90;999.90;;;;;;;19.44;21.90;98502.53;5093239;28;20098;-75